La Fontaine, IN (46940)

4:08 PM EDT on August 29, 2015 (GMT -0400)
Mississinewa Lake | | Change Station
CLOSE
Current Station
Personal Weather Station
Location: LaFontaine, IN
Elevation: 807 ft
Nearby Weather Stations

Elev 807 ft 40.66 °N, 85.79 °W | Updated 2 minutes ago

Overcast
Overcast
77.6 °F
Feels Like 80 °F
N
0.0
Wind Variable Wind from SW
Gusts 7.0 mph

Today
High -- | Low -- °F
--% Chance of Precip.
Yesterday
High -- | Low -- °F
Precip. -- in
7:06 AM 8:20 PM
Full, 100% visible
Pressure 30.08 in
Visibility 7.0 miles
Clouds Mostly Cloudy 5000 ft
Mostly Cloudy 6500 ft
Heat Index 80 °F
Dew Point 73 °F
Humidity 85%
Rainfall 0.00 in
Snow Depth Not available.
UV 4 out of 12
Pollen 9.30 out of 12
Air Quality Not available.
Flu Activity Not available.
METAR KMZZ 291955Z AUTO 24008KT 7SM BKN050 BKN065 27/13 A3008 RMK AO2 T02660134
Pressure 30.08 in
Visibility 7.0 miles
Clouds Mostly Cloudy 5000 ft
Mostly Cloudy 6500 ft
Heat Index 80 °F
Dew Point 73 °F
Humidity 85%
Rainfall 0.00 in
Snow Depth Not available.
UV 4 out of 12
Pollen 9.30 out of 12
Air Quality Not available.
Flu Activity Not available.
METAR KMZZ 291955Z AUTO 24008KT 7SM BKN050 BKN065 27/13 A3008 RMK AO2 T02660134

10-Day Weather Forecast

×

Almanac

Astronomy

Aug. 29, 2015 Rise Set
Actual Time
Civil Twilight
Nautical Twilight
Astronomical Twilight
Moon
Length of Visible Light
Length of Day
Tomorrow will be .
, % of the Moon is Illuminated

Today's Extremes

State Highs State Lows

Community

WunderPhotos

Upload Photos

1,850,793 photos uploaded!

WunderBlogs® & News

Nearby

Air Quality

  Air Quality AQ Index Pollutant
Not available.

Snow Depth

Station Depth Elevation

Earthquake Activity

City Distance Mag. Time & Date
Minimum magnitude displayed is 2.5.

Coastal Water Temperatures

Place Temperature

Stations

Nearby Weather Stations

Station Location Temp. Windchill Dew Point Humidity Wind Precip. Elev Updated Type